Time;durP1;ratioP1;P1;durP2;ratioP2;P2;SDS_P1;SDS_P2;PMS_P1;PMS_P2;Temp;Humidity;BMP_temperature;BMP_pressure;BME280_temperature;BME280_humidity;BME280_pressure;Samples;Min_cycle;Max_cycle;Signal;HPM_P1;HPM_P2
2021/10/09 00:00:23;;;;;;;10.10;6.13;;;;;;;9.23;74.39;100022.25;5089999;28;42379;-81
2021/10/09 00:02:50;;;;;;;9.97;5.63;;;;;;;9.25;74.54;100031.88;5064870;28;42545;-82
2021/10/09 00:05:20;;;;;;;10.40;5.43;;;;;;;9.23;74.40;100032.84;5071868;28;42349;-81
2021/10/09 00:07:47;;;;;;;8.57;5.10;;;;;;;9.24;74.30;100031.91;5105231;28;39647;-85
2021/10/09 00:10:24;;;;;;;8.13;5.00;;;;;;;9.15;74.29;100019.06;5083203;28;41754;-83
2021/10/09 00:12:52;;;;;;;10.50;5.40;;;;;;;9.12;74.27;100019.16;5074537;28;41906;-83
2021/10/09 00:15:21;;;;;;;8.50;4.47;;;;;;;9.10;73.92;100015.72;5091174;28;40924;-84
2021/10/09 00:17:50;;;;;;;7.67;5.50;;;;;;;9.05;73.89;100017.66;5056077;28;39242;-79
2021/10/09 00:20:18;;;;;;;9.53;5.53;;;;;;;9.12;73.97;100021.81;5089451;28;41743;-80
2021/10/09 00:22:46;;;;;;;6.30;4.77;;;;;;;9.08;73.78;100025.47;5070342;28;41571;-88
2021/10/09 00:25:14;;;;;;;7.00;4.60;;;;;;;8.99;73.82;100014.34;5090776;28;43109;-78
2021/10/09 00:27:41;;;;;;;8.73;5.37;;;;;;;9.04;73.57;100026.50;5081186;28;39011;-87
2021/10/09 00:30:10;;;;;;;7.27;5.30;;;;;;;8.93;74.35;100009.28;5069925;28;42101;-87
2021/10/09 00:32:39;;;;;;;7.40;4.33;;;;;;;8.98;74.72;100020.53;5097643;28;43820;-85
2021/10/09 00:35:07;;;;;;;9.77;5.57;;;;;;;8.95;74.72;100020.66;5060352;28;42192;-84
2021/10/09 00:37:36;;;;;;;6.30;4.27;;;;;;;9.00;74.88;100021.34;5071884;28;41845;-85
2021/10/09 00:40:06;;;;;;;8.70;5.20;;;;;;;9.01;74.95;100022.22;5050220;28;42827;-82
2021/10/09 00:42:33;;;;;;;8.43;4.97;;;;;;;9.00;75.05;100021.34;5049568;28;42188;-86
2021/10/09 00:45:02;;;;;;;11.97;5.43;;;;;;;8.81;74.82;99988.59;5096102;28;42311;-83
2021/10/09 00:47:29;;;;;;;9.43;5.33;;;;;;;8.80;74.80;99980.72;5053673;28;39082;-85
2021/10/09 00:49:57;;;;;;;7.87;4.57;;;;;;;8.89;74.84;99996.25;5070901;28;42467;-83
2021/10/09 00:52:26;;;;;;;9.50;5.03;;;;;;;8.87;74.91;99998.94;5070740;28;43868;-80
2021/10/09 00:54:57;;;;;;;9.80;5.03;;;;;;;8.98;74.73;100015.25;5072553;28;42996;-80
2021/10/09 00:57:26;;;;;;;9.80;5.13;;;;;;;8.98;74.81;100025.84;5091973;28;40991;-80
2021/10/09 00:59:57;;;;;;;7.37;5.07;;;;;;;8.85;74.62;100000.78;5087727;28;41785;-85
2021/10/09 01:02:26;;;;;;;9.03;5.20;;;;;;;8.95;74.51;100028.59;5071082;28;43837;-83
2021/10/09 01:04:53;;;;;;;5.73;4.23;;;;;;;8.94;74.55;100015.41;5070943;28;43350;-87
2021/10/09 01:07:21;;;;;;;8.20;4.20;;;;;;;8.87;74.37;100003.38;5055599;28;39009;-84
2021/10/09 01:09:49;;;;;;;7.10;4.77;;;;;;;8.80;74.70;99997.44;5053871;28;40771;-83
2021/10/09 01:12:18;;;;;;;10.40;5.10;;;;;;;8.88;74.49;100016.53;5054012;28;42227;-86
2021/10/09 01:14:46;;;;;;;8.37;4.87;;;;;;;8.86;74.52;100012.22;5081019;28;41352;-79
2021/10/09 01:17:15;;;;;;;8.60;4.17;;;;;;;8.80;74.50;100002.72;5089785;28;40011;-84
2021/10/09 01:19:44;;;;;;;10.27;5.03;;;;;;;8.73;74.29;100001.25;5073383;28;41687;-81
2021/10/09 01:22:13;;;;;;;7.23;4.93;;;;;;;8.81;74.37;100007.09;5068433;28;41814;-84
2021/10/09 01:24:42;;;;;;;7.57;4.50;;;;;;;8.81;74.47;100006.22;5069916;28;41111;-83
2021/10/09 01:27:15;;;;;;;6.70;4.37;;;;;;;8.80;74.27;100015.94;5053784;28;40002;-80
2021/10/09 01:29:44;;;;;;;9.77;4.80;;;;;;;8.77;74.35;100010.78;5070180;28;41852;-81
2021/10/09 01:32:11;;;;;;;5.00;4.00;;;;;;;8.54;74.00;99974.63;5069508;28;41818;-85
2021/10/09 01:34:40;;;;;;;8.20;5.00;;;;;;;8.76;74.42;100011.69;5070694;28;42333;-83
2021/10/09 01:37:16;;;;;;;7.77;4.60;;;;;;;8.75;74.68;100004.69;5076499;28;41013;-83
2021/10/09 01:39:46;;;;;;;8.07;5.40;;;;;;;8.69;74.43;100002.25;5061059;28;41853;-82
2021/10/09 01:42:21;;;;;;;8.50;4.13;;;;;;;8.61;74.28;99991.13;5087211;28;43947;-88
2021/10/09 01:44:50;;;;;;;8.50;3.57;;;;;;;8.63;74.04;99991.94;5063386;28;42517;-84
2021/10/09 01:47:18;;;;;;;7.90;4.40;;;;;;;8.62;74.00;99995.50;5056937;28;39112;-79
2021/10/09 01:49:47;;;;;;;8.60;4.40;;;;;;;8.57;74.02;99990.38;5090575;28;41758;-80
2021/10/09 01:52:16;;;;;;;7.93;4.57;;;;;;;8.64;73.80;100009.50;5055365;28;41905;-80
2021/10/09 01:54:44;;;;;;;7.77;4.00;;;;;;;8.65;74.04;100013.88;5072809;28;41521;-83
2021/10/09 01:57:12;;;;;;;5.73;4.00;;;;;;;8.63;73.63;100013.06;5073224;28;39049;-83
2021/10/09 01:59:40;;;;;;;5.17;3.90;;;;;;;8.50;73.91;99982.72;5056216;28;40665;-83
2021/10/09 02:02:18;;;;;;;4.97;3.70;;;;;;;8.60;74.01;100008.75;5079725;28;42032;-85
2021/10/09 02:04:46;;;;;;;5.93;3.80;;;;;;;8.37;73.81;99976.16;5101165;28;42699;-81
2021/10/09 02:07:19;;;;;;;6.80;4.13;;;;;;;8.55;73.78;100004.53;5059921;28;38967;-90
2021/10/09 02:09:46;;;;;;;6.10;3.93;;;;;;;8.51;73.75;100010.88;5104448;27;41967;-89
2021/10/09 02:12:14;;;;;;;6.30;4.80;;;;;;;8.36;73.42;99979.72;5079995;28;42108;-79
2021/10/09 02:14:52;;;;;;;5.80;3.83;;;;;;;8.31;73.29;99974.56;5089113;28;42429;-82
2021/10/09 02:25:47;;;;;;;7.67;3.63;;;;;;;8.25;73.52;99993.25;5053209;28;42780;-83
2021/10/09 02:28:23;;;;;;;5.93;3.23;;;;;;;7.85;73.45;99933.09;5036186;28;38796;-82
2021/10/09 02:30:55;;;;;;;8.40;4.93;;;;;;;8.18;73.43;99999.66;5077032;28;42733;-80
2021/10/09 02:33:24;;;;;;;4.77;3.67;;;;;;;8.05;73.39;99980.75;5078649;28;43298;-88
2021/10/09 02:35:53;;;;;;;5.33;3.17;;;;;;;7.78;73.42;99943.00;5059589;28;41364;-83
2021/10/09 02:38:23;;;;;;;5.20;4.17;;;;;;;8.07;73.68;99999.16;5076430;28;39822;-87
2021/10/09 02:40:53;;;;;;;6.33;3.77;;;;;;;8.00;73.45;99992.38;5092185;28;40671;-89
2021/10/09 02:43:22;;;;;;;6.43;3.33;;;;;;;7.90;73.19;99983.94;5076359;28;41657;-83
2021/10/09 02:45:52;;;;;;;3.70;2.97;;;;;;;7.94;73.34;99996.06;5082878;28;41031;-87
2021/10/09 02:48:21;;;;;;;8.23;3.27;;;;;;;7.90;73.31;99991.84;5055702;28;39100;-81
2021/10/09 02:50:49;;;;;;;6.17;3.57;;;;;;;7.78;73.31;99979.06;5056239;28;40925;-89
2021/10/09 02:53:22;;;;;;;6.07;3.13;;;;;;;7.85;73.28;99993.75;5063128;28;42843;-86
2021/10/09 02:55:50;;;;;;;4.47;3.27;;;;;;;7.79;73.15;99997.44;5096768;28;42568;-85
2021/10/09 02:58:20;;;;;;;4.30;2.93;;;;;;;7.78;73.23;99992.25;5112716;27;40930;-84
2021/10/09 03:00:48;;;;;;;7.13;4.23;;;;;;;7.69;73.57;99988.13;5091121;28;42779;-82
2021/10/09 03:03:18;;;;;;;4.23;3.03;;;;;;;7.70;73.57;99991.63;5065939;28;41856;-78
2021/10/09 03:05:46;;;;;;;5.57;3.57;;;;;;;7.70;73.57;99988.97;5064159;28;41578;-86
2021/10/09 03:08:14;;;;;;;5.10;3.53;;;;;;;7.72;73.65;99995.06;5061511;28;40027;-84
2021/10/09 03:10:44;;;;;;;6.40;4.00;;;;;;;7.73;73.52;100000.28;5065874;28;41705;-85
2021/10/09 03:13:12;;;;;;;6.50;4.57;;;;;;;7.69;73.89;99992.53;5093057;28;43085;-80
2021/10/09 03:15:43;;;;;;;8.13;3.53;;;;;;;7.61;74.37;99982.25;5098791;28;41428;-80
2021/10/09 03:18:10;;;;;;;4.83;3.37;;;;;;;7.73;74.24;99999.44;5092555;28;38995;-88
2021/10/09 03:20:38;;;;;;;6.33;3.80;;;;;;;7.65;74.34;99985.66;5092138;28;42228;-83
2021/10/09 03:23:10;;;;;;;5.20;3.97;;;;;;;7.73;74.15;99994.16;5062842;28;43098;-86
2021/10/09 03:25:38;;;;;;;6.53;3.80;;;;;;;7.63;74.61;99990.09;5074798;28;43747;-87
2021/10/09 03:28:08;;;;;;;6.27;3.57;;;;;;;7.61;74.46;99984.00;5055902;28;40270;-84
2021/10/09 03:30:35;;;;;;;4.63;3.30;;;;;;;7.70;74.33;99999.53;5075407;28;41924;-84
2021/10/09 03:33:03;;;;;;;3.60;2.97;;;;;;;7.70;74.38;100002.16;5076382;28;41900;-78
2021/10/09 03:35:31;;;;;;;6.30;4.07;;;;;;;7.65;74.28;100002.34;5094260;28;41071;-84
2021/10/09 03:38:00;;;;;;;6.47;4.60;;;;;;;7.53;74.27;99982.50;5073762;28;40267;-88
2021/10/09 03:40:28;;;;;;;5.80;3.73;;;;;;;7.58;74.56;99988.47;5060056;28;40625;-80
2021/10/09 03:42:58;;;;;;;5.17;3.13;;;;;;;7.64;74.40;99991.81;5089573;28;43860;-89
2021/10/09 03:45:31;;;;;;;3.87;3.17;;;;;;;7.57;74.22;99992.00;5054341;28;41203;-83
2021/10/09 03:53:37;;;;;;;6.93;4.03;;;;;;;7.58;74.11;99996.38;5055251;28;41708;-81
2021/10/09 03:56:06;;;;;;;6.50;3.37;;;;;;;7.58;74.26;99996.38;5071050;28;41561;-87
2021/10/09 03:58:41;;;;;;;5.13;3.47;;;;;;;7.53;74.25;99989.53;5070340;28;41343;-84
2021/10/09 04:01:10;;;;;;;7.10;4.43;;;;;;;7.46;73.89;99980.94;5062555;28;40612;-82
2021/10/09 04:03:38;;;;;;;4.27;2.73;;;;;;;7.35;74.06;99961.97;5105658;28;42742;-85
2021/10/09 04:06:06;;;;;;;5.47;2.87;;;;;;;7.56;74.25;99997.31;5075576;28;42853;-86
2021/10/09 04:08:34;;;;;;;6.63;3.57;;;;;;;7.54;74.16;99993.91;5080544;28;39152;-86
2021/10/09 04:11:03;;;;;;;5.10;3.30;;;;;;;7.51;74.24;99994.88;5068940;28;41170;-82
2021/10/09 04:13:31;;;;;;;4.17;3.10;;;;;;;7.44;74.68;99982.75;5090884;28;41649;-82
2021/10/09 04:16:00;;;;;;;3.57;2.90;;;;;;;7.49;74.36;99985.28;5071212;28;41694;-87
2021/10/09 04:18:31;;;;;;;5.80;3.57;;;;;;;7.37;74.71;99975.97;5090858;28;41063;-81
2021/10/09 04:20:59;;;;;;;6.13;4.03;;;;;;;7.48;75.38;99984.41;5071415;28;40772;-84
2021/10/09 04:23:27;;;;;;;6.77;3.60;;;;;;;7.35;75.22;99967.25;5071315;28;42060;-86
2021/10/09 04:25:56;;;;;;;7.83;3.87;;;;;;;7.41;75.21;99982.88;5087360;28;41384;-85
2021/10/09 04:28:24;;;;;;;5.13;3.77;;;;;;;7.33;74.93;99969.06;5073842;28;39016;-84
2021/10/09 04:30:51;;;;;;;6.70;3.93;;;;;;;7.44;75.14;99993.31;5076291;28;41004;-81
2021/10/09 04:33:20;;;;;;;4.47;3.07;;;;;;;7.43;75.26;99980.19;5075908;28;43204;-83
2021/10/09 04:35:50;;;;;;;6.17;3.30;;;;;;;7.41;74.83;99993.44;5078583;28;43479;-79
2021/10/09 04:38:17;;;;;;;4.27;2.93;;;;;;;7.39;74.58;99992.63;5071443;28;39337;-84
2021/10/09 04:40:45;;;;;;;4.60;3.43;;;;;;;7.35;74.77;99993.59;5084829;28;41758;-84
2021/10/09 04:43:13;;;;;;;4.60;2.73;;;;;;;7.37;74.87;100002.34;5078909;28;42227;-84
2021/10/09 04:45:43;;;;;;;7.00;3.53;;;;;;;7.27;75.04;99990.38;5062490;28;41451;-87
2021/10/09 04:48:11;;;;;;;4.57;3.10;;;;;;;7.29;75.22;99991.19;5066828;28;39932;-95
2021/10/09 04:50:39;;;;;;;9.67;4.07;;;;;;;7.33;74.96;100002.47;5092822;28;41655;-84
2021/10/09 04:53:11;;;;;;;6.07;3.17;;;;;;;7.34;75.11;100006.81;5089975;28;42110;-83
2021/10/09 04:55:39;;;;;;;6.27;3.43;;;;;;;7.32;75.13;99998.09;5079631;28;42734;-79
2021/10/09 04:58:06;;;;;;;6.73;2.73;;;;;;;7.32;75.09;100003.38;5092495;28;40201;-79
2021/10/09 05:00:35;;;;;;;5.50;3.53;;;;;;;7.31;75.29;100005.13;5073524;28;40561;-86
2021/10/09 05:03:03;;;;;;;7.57;3.97;;;;;;;7.27;75.97;99987.72;5068107;28;41670;-84
2021/10/09 05:05:34;;;;;;;7.00;3.83;;;;;;;7.33;75.70;100007.72;5067790;28;42325;-81
2021/10/09 05:08:03;;;;;;;5.67;3.23;;;;;;;7.32;75.54;100004.22;5070774;28;39037;-88
2021/10/09 05:10:32;;;;;;;4.40;3.23;;;;;;;7.17;75.45;99988.91;5074770;28;42282;-86
2021/10/09 05:13:00;;;;;;;5.50;3.33;;;;;;;7.22;75.26;100002.81;5057766;28;42074;-84
2021/10/09 05:15:28;;;;;;;6.93;4.13;;;;;;;7.21;75.59;100001.94;5058643;28;41256;-85
2021/10/09 05:17:55;;;;;;;5.93;3.53;;;;;;;7.17;75.93;99994.19;5060833;28;40137;-89
2021/10/09 05:20:23;;;;;;;6.33;4.10;;;;;;;7.32;75.90;100020.03;5078613;28;41983;-80
2021/10/09 05:22:52;;;;;;;5.23;3.33;;;;;;;7.20;75.39;100004.63;5076498;28;42256;-81
2021/10/09 05:25:19;;;;;;;5.93;4.10;;;;;;;7.33;75.73;100029.69;5074505;28;41340;-83
2021/10/09 05:27:54;;;;;;;5.13;3.40;;;;;;;7.33;75.49;100027.03;5074894;28;40910;-88
2021/10/09 05:30:22;;;;;;;4.00;2.83;;;;;;;7.30;75.80;100027.13;5074832;28;42512;-80
2021/10/09 05:32:59;;;;;;;6.53;3.17;;;;;;;7.30;75.29;100027.13;5057176;28;42952;-89
2021/10/09 05:35:27;;;;;;;5.03;3.07;;;;;;;7.16;75.18;100018.81;5091804;28;42299;-84
2021/10/09 05:37:55;;;;;;;5.87;3.03;;;;;;;7.14;75.38;100010.09;5071412;28;39805;-79
2021/10/09 05:40:23;;;;;;;5.17;3.57;;;;;;;7.17;75.17;100031.06;5102646;28;40622;-81
2021/10/09 05:42:52;;;;;;;4.83;3.40;;;;;;;7.15;75.07;100027.63;5085244;28;41919;-81
2021/10/09 05:45:21;;;;;;;7.17;3.60;;;;;;;7.25;75.57;100039.59;5091576;28;42768;-82
2021/10/09 05:47:50;;;;;;;5.03;3.40;;;;;;;7.21;75.23;100038.81;5102121;28;40262;-82
2021/10/09 05:50:23;;;;;;;5.53;3.37;;;;;;;7.15;75.06;100031.13;5103370;28;40591;-81
2021/10/09 05:52:56;;;;;;;5.10;3.00;;;;;;;7.16;75.17;100039.88;5079711;28;42715;-86
2021/10/09 05:55:28;;;;;;;7.23;3.23;;;;;;;7.25;75.15;100047.50;5085079;28;42545;-78
2021/10/09 05:58:05;;;;;;;5.80;3.47;;;;;;;7.28;75.37;100060.59;5083746;28;38824;-78
2021/10/09 09:32:32;;;;;;;6.67;4.07;;;;;;;20.27;37.84;100184.56;5160754;27;43344;-88
2021/10/09 09:40:45;;;;;;;5.93;4.13;;;;;;;18.88;37.11;100176.69;5117134;27;43602;-81
2021/10/09 09:43:14;;;;;;;5.37;4.50;;;;;;;18.58;37.40;100157.50;5172262;27;45178;-86
2021/10/09 09:45:41;;;;;;;7.93;3.87;;;;;;;18.48;38.67;100151.94;5174548;27;41986;-87
2021/10/09 09:48:10;;;;;;;5.07;3.60;;;;;;;18.51;39.57;100157.09;5174254;27;39028;-89
2021/10/09 09:50:40;;;;;;;4.30;3.47;;;;;;;18.22;39.11;100118.16;5173436;27;41618;-84
2021/10/09 09:53:08;;;;;;;6.90;4.37;;;;;;;18.26;38.96;100147.31;5156163;27;42448;-86
2021/10/09 09:55:39;;;;;;;5.60;3.50;;;;;;;18.23;39.24;100160.09;5147081;27;41309;-86
2021/10/09 09:58:10;;;;;;;4.80;3.70;;;;;;;18.06;37.86;100149.72;5145572;27;40061;-90
2021/10/09 10:00:38;;;;;;;5.03;3.53;;;;;;;18.21;40.32;100149.47;5153577;27;41136;-86
2021/10/09 10:03:07;;;;;;;3.50;3.03;;;;;;;18.66;38.30;100165.84;5148316;27;42008;-88
2021/10/09 10:05:35;;;;;;;3.63;2.97;;;;;;;18.58;37.63;100146.75;5142379;27;43080;-84
2021/10/09 10:08:05;;;;;;;3.63;3.13;;;;;;;19.15;36.52;100178.22;5165132;27;38790;-81
2021/10/09 10:10:33;;;;;;;4.03;3.30;;;;;;;19.50;36.01;100178.22;5181773;27;40594;-82
2021/10/09 10:13:00;;;;;;;4.67;3.40;;;;;;;19.64;36.67;100181.53;5155239;27;42595;-84
2021/10/09 10:15:32;;;;;;;5.47;3.40;;;;;;;20.22;35.96;100193.00;5140624;27;42345;-83
2021/10/09 10:18:00;;;;;;;4.27;3.03;;;;;;;20.35;34.07;100191.03;5128430;27;39342;-84
2021/10/09 10:20:49;;;;;;;5.27;3.87;;;;;;;20.66;36.39;100177.72;5155583;27;40746;-83
2021/10/09 10:23:36;;;;;;;4.47;3.30;;;;;;;21.28;33.96;100204.78;5175532;27;44085;-84
2021/10/09 10:26:26;;;;;;;5.60;3.77;;;;;;;21.62;34.13;100183.88;5149246;27;43295;-84
2021/10/09 10:29:22;;;;;;;3.70;3.27;;;;;;;21.95;34.96;100185.44;5157651;27;40148;-85
2021/10/09 10:32:13;;;;;;;7.20;3.67;;;;;;;22.17;32.98;100197.91;5133648;27;40725;-84
2021/10/09 10:34:45;;;;;;;4.23;3.23;;;;;;;22.84;31.71;100191.81;5163666;27;43501;-85
2021/10/09 10:37:35;;;;;;;5.10;3.90;;;;;;;23.86;32.77;100191.09;5150436;27;41104;-85
2021/10/09 10:40:06;;;;;;;4.10;3.33;;;;;;;24.28;30.83;100212.31;5134243;27;39223;-84
2021/10/09 10:42:34;;;;;;;3.57;3.20;;;;;;;24.82;29.02;100222.25;5151977;27;42123;-84
2021/10/09 10:47:59;;;;;;;4.17;3.33;;;;;;;27.63;26.51;100220.44;5117880;27;41323;-86
2021/10/09 10:54:22;;;;;;;4.40;4.00;;;;;;;30.00;23.86;100242.47;5094305;27;40998;-85
2021/10/09 10:57:18;;;;;;;4.33;3.50;;;;;;;30.75;23.76;100241.38;5096333;27;41837;-85
2021/10/09 10:59:49;;;;;;;5.37;4.00;;;;;;;30.77;22.37;100266.66;5095936;27;41141;-84
2021/10/09 11:02:23;;;;;;;3.60;3.30;;;;;;;30.42;22.59;100237.34;5117022;27;40407;-84
2021/10/09 11:04:53;;;;;;;4.20;3.57;;;;;;;31.87;21.29;100249.88;5133672;27;42028;-85
2021/10/09 11:07:26;;;;;;;4.77;3.57;;;;;;;32.86;19.75;100248.56;5133320;27;41741;-85
2021/10/09 11:09:54;;;;;;;4.60;3.73;;;;;;;33.30;19.87;100253.53;5153012;27;42344;-85
2021/10/09 11:12:26;;;;;;;5.13;3.60;;;;;;;33.68;19.76;100237.28;5127051;27;38886;-86
2021/10/09 11:15:04;;;;;;;4.10;3.67;;;;;;;34.54;18.68;100251.75;5115803;27;40635;-86
2021/10/09 11:17:36;;;;;;;4.43;4.03;;;;;;;34.87;18.26;100253.53;5133980;27;42542;-85
2021/10/09 11:20:06;;;;;;;3.50;3.20;;;;;;;34.59;18.89;100248.34;5116182;27;41077;-86
2021/10/09 11:22:45;;;;;;;4.67;4.00;;;;;;;33.50;19.39;100246.19;5133354;27;38982;-85
2021/10/09 11:25:24;;;;;;;4.87;3.93;;;;;;;32.30;20.56;100236.88;5134561;27;42685;-84
2021/10/09 11:27:55;;;;;;;4.40;3.10;;;;;;;32.94;21.30;100218.16;5151141;27;43211;-84
2021/10/09 11:30:24;;;;;;;3.97;3.47;;;;;;;34.58;20.63;100222.75;5150999;27;42223;-87
2021/10/09 11:32:53;;;;;;;4.67;3.67;;;;;;;35.93;17.62;100243.47;5116438;27;39364;-86
2021/10/09 11:35:31;;;;;;;3.30;3.00;;;;;;;37.16;16.88;100248.81;5115551;27;41004;-86
2021/10/09 11:37:59;;;;;;;3.80;3.30;;;;;;;38.14;15.69;100230.81;5116503;27;41729;-85
2021/10/09 11:40:33;;;;;;;4.03;3.63;;;;;;;39.34;15.12;100244.63;5142856;27;42572;-85
2021/10/09 11:43:11;;;;;;;4.20;3.72;;;;;;;40.30;14.36;100242.63;5151956;27;38956;-87
2021/10/09 11:45:45;;;;;;;5.53;3.53;;;;;;;41.24;13.49;100240.44;5133893;27;42008;-88
2021/10/09 11:53:55;;;;;;;3.97;3.35;;;;;;;42.72;12.70;100214.44;5108372;27;38881;-92
2021/10/09 11:56:23;;;;;;;3.47;3.20;;;;;;;43.01;12.80;100212.88;5106011;27;40728;-90
2021/10/09 11:58:57;;;;;;;3.55;3.25;;;;;;;42.85;12.67;100225.09;5113530;27;41777;-90
2021/10/09 12:01:30;;;;;;;4.65;3.67;;;;;;;42.01;13.31;100180.69;5113710;27;41940;-88
2021/10/09 12:04:13;;;;;;;3.35;3.05;;;;;;;42.08;12.83;100215.53;5114593;27;39262;-87
2021/10/09 12:06:43;;;;;;;3.75;3.38;;;;;;;41.51;12.55;100210.66;5112700;27;40908;-92
2021/10/09 12:09:13;;;;;;;3.78;3.47;;;;;;;41.03;13.37;100221.84;5113475;27;42645;-87
2021/10/09 12:11:42;;;;;;;4.05;3.65;;;;;;;41.30;13.35;100205.19;5113840;27;41210;-89
2021/10/09 12:14:20;;;;;;;4.68;3.47;;;;;;;42.13;12.81;100196.09;5114326;27;40258;-88
2021/10/09 12:16:48;;;;;;;4.18;3.10;;;;;;;42.85;12.62;100186.06;5115065;27;40893;-90
2021/10/09 12:19:26;;;;;;;3.92;3.58;;;;;;;43.66;12.76;100197.28;5115144;27;43283;-86
2021/10/09 12:22:02;;;;;;;3.58;3.33;;;;;;;44.27;12.29;100186.81;5113639;27;41093;-90
2021/10/09 12:24:32;;;;;;;3.60;3.30;;;;;;;44.44;11.23;100199.63;5130257;27;39266;-89
2021/10/09 12:27:02;;;;;;;3.50;3.20;;;;;;;44.38;10.81;100202.47;5097587;27;40567;-89
2021/10/09 12:29:34;;;;;;;4.13;3.15;;;;;;;44.37;11.11;100202.75;5113669;27;41652;-91
2021/10/09 12:32:16;;;;;;;3.72;3.38;;;;;;;44.20;11.15;100196.63;5114235;27;41276;-87
2021/10/09 12:34:44;;;;;;;3.78;3.33;;;;;;;44.40;11.72;100191.81;5115037;27;39028;-87
2021/10/09 12:37:23;;;;;;;3.13;2.83;;;;;;;44.52;11.80;100166.34;5114252;27;41912;-88
2021/10/09 12:40:09;;;;;;;3.88;3.58;;;;;;;42.64;11.51;100163.72;5110728;27;41832;-90
2021/10/09 12:42:37;;;;;;;3.35;3.10;;;;;;;42.00;12.67;100163.16;5132623;27;42464;-86
2021/10/09 12:45:07;;;;;;;3.00;2.70;;;;;;;42.37;11.70;100173.34;5115323;27;38934;-88
2021/10/09 12:47:35;;;;;;;3.25;2.95;;;;;;;42.78;12.18;100160.44;5114065;27;40792;-89
2021/10/09 12:50:03;;;;;;;3.35;3.05;;;;;;;43.06;11.97;100173.00;5115623;27;41698;-88
2021/10/09 12:52:30;;;;;;;4.88;3.40;;;;;;;42.97;11.85;100156.81;5114507;27;41191;-90
2021/10/09 12:54:58;;;;;;;3.30;3.00;;;;;;;43.10;12.34;100143.44;5115705;27;40624;-88
2021/10/09 12:57:26;;;;;;;4.03;3.63;;;;;;;43.15;11.92;100144.25;5113144;27;40935;-90
2021/10/09 12:59:55;;;;;;;3.35;3.05;;;;;;;43.09;12.17;100119.47;5114483;27;43490;-89
2021/10/09 13:02:24;;;;;;;3.72;3.42;;;;;;;43.20;11.92;100151.84;5114157;27;41283;-89
2021/10/09 13:04:52;;;;;;;3.97;3.20;;;;;;;43.11;12.03;100150.69;5114494;27;40430;-88
2021/10/09 13:07:19;;;;;;;3.10;2.90;;;;;;;42.99;11.34;100137.03;5113884;27;41674;-86
2021/10/09 13:09:50;;;;;;;3.15;2.92;;;;;;;42.95;11.61;100125.59;5114031;27;43012;-89
2021/10/09 13:12:18;;;;;;;2.88;2.67;;;;;;;42.89;11.73;100140.66;5114868;27;42399;-87
2021/10/09 13:14:46;;;;;;;3.40;3.05;;;;;;;42.52;11.49;100131.66;5123014;27;38839;-91
2021/10/09 13:17:16;;;;;;;2.88;2.58;;;;;;;42.33;12.12;100122.91;5117420;27;41016;-89
2021/10/09 13:19:45;;;;;;;2.90;2.67;;;;;;;42.37;12.19;100129.66;5114926;27;43299;-91
2021/10/09 13:22:13;;;;;;;3.55;3.25;;;;;;;42.07;11.30;100129.50;5115056;27;41414;-91
2021/10/09 13:24:41;;;;;;;2.90;2.70;;;;;;;41.79;11.45;100123.19;5114969;27;40787;-88
2021/10/09 13:27:09;;;;;;;2.78;2.55;;;;;;;41.74;11.84;100133.47;5114477;27;41633;-90
2021/10/09 13:29:38;;;;;;;3.33;2.90;;;;;;;41.52;11.77;100125.25;5114607;27;41798;-89
2021/10/09 13:32:06;;;;;;;2.67;2.47;;;;;;;41.31;12.45;100121.47;5116478;27;43449;-87
2021/10/09 13:34:34;;;;;;;2.92;2.60;;;;;;;41.19;12.31;100124.44;5115535;27;39130;-89
2021/10/09 13:37:04;;;;;;;2.97;2.70;;;;;;;41.00;12.54;100123.16;5113292;27;40854;-94
2021/10/09 13:39:32;;;;;;;2.88;2.65;;;;;;;40.65;11.97;100117.22;5112967;27;41720;-86
2021/10/09 13:42:00;;;;;;;3.60;2.70;;;;;;;40.15;11.32;100121.09;5114308;27;41613;-86
2021/10/09 13:44:28;;;;;;;3.80;2.67;;;;;;;39.64;12.35;100105.66;5114367;27;38833;-90
2021/10/09 13:46:56;;;;;;;2.90;2.60;;;;;;;39.54;13.05;100097.22;5114347;27;40960;-87
2021/10/09 13:49:24;;;;;;;2.83;2.50;;;;;;;39.65;13.08;100107.34;5116048;27;42221;-90
2021/10/09 13:51:52;;;;;;;2.90;2.50;;;;;;;39.36;12.90;100110.22;5106358;27;42220;-89
2021/10/09 13:54:21;;;;;;;5.10;2.47;;;;;;;39.17;12.84;100110.75;5117847;27;39562;-88
2021/10/09 13:56:49;;;;;;;3.43;2.63;;;;;;;38.86;13.64;100084.41;5118031;27;41099;-87
2021/10/09 13:59:17;;;;;;;3.07;2.30;;;;;;;38.82;13.25;100091.56;5118115;27;42101;-88
2021/10/09 14:01:44;;;;;;;3.47;2.83;;;;;;;38.84;13.50;100103.22;5131698;27;42223;-85
2021/10/09 14:04:12;;;;;;;2.83;2.63;;;;;;;38.42;13.37;100085.00;5118877;27;39381;-83
2021/10/09 14:06:41;;;;;;;2.30;2.10;;;;;;;38.17;13.64;100089.19;5117281;27;41429;-86
2021/10/09 14:09:09;;;;;;;3.63;2.17;;;;;;;37.92;14.09;100086.72;5118094;27;41845;-86
2021/10/09 14:11:39;;;;;;;3.43;2.30;;;;;;;37.70;13.68;100084.63;5128680;27;41548;-85
2021/10/09 14:14:07;;;;;;;2.43;2.23;;;;;;;37.35;13.71;100092.88;5116554;27;39015;-86
2021/10/09 14:16:37;;;;;;;2.67;2.23;;;;;;;36.91;13.72;100071.34;5120441;27;41305;-87
2021/10/09 14:19:05;;;;;;;2.63;2.30;;;;;;;36.75;14.27;100080.28;5134282;27;41738;-90
2021/10/09 14:21:33;;;;;;;2.50;2.30;;;;;;;36.31;14.98;100074.97;5118707;27;41099;-91
2021/10/09 14:24:00;;;;;;;2.00;1.83;;;;;;;35.02;14.73;100086.09;5117985;27;39078;-92
2021/10/09 14:26:28;;;;;;;2.50;2.30;;;;;;;33.51;15.65;100072.00;5117876;27;40850;-91
2021/10/09 14:28:57;;;;;;;2.10;1.90;;;;;;;32.13;16.67;100077.34;5117048;27;41872;-90
2021/10/09 14:31:25;;;;;;;2.27;2.07;;;;;;;31.00;17.82;100059.38;5118107;27;41157;-89
2021/10/09 14:33:53;;;;;;;1.97;1.87;;;;;;;30.17;18.98;100050.94;5117745;27;39821;-92
2021/10/09 14:36:20;;;;;;;2.80;2.20;;;;;;;29.21;20.14;100054.66;5116175;27;41014;-91
2021/10/09 14:38:48;;;;;;;2.57;2.37;;;;;;;28.27;20.87;100027.88;5114518;27;41713;-91
2021/10/09 14:41:15;;;;;;;2.90;2.23;;;;;;;27.50;21.86;100020.38;5117050;27;41247;-88
2021/10/09 14:43:43;;;;;;;2.00;1.90;;;;;;;27.03;22.48;100033.13;5117088;27;38693;-90
2021/10/09 14:46:34;;;;;;;2.30;2.10;;;;;;;26.44;23.11;100021.59;5116442;27;40468;-88
2021/10/09 14:49:06;;;;;;;3.80;2.57;;;;;;;25.80;23.72;100011.41;5116480;27;41839;-88
2021/10/09 14:51:38;;;;;;;3.57;2.00;;;;;;;25.23;24.39;100013.84;5115139;27;41271;-89
2021/10/09 15:16:39;;;;;;;4.40;2.03;;;;;;;21.63;29.04;99972.59;5117236;27;38922;-90
2021/10/09 15:19:08;;;;;;;2.77;2.20;;;;;;;21.44;29.50;99984.16;5111290;27;41902;-89
2021/10/09 15:21:36;;;;;;;2.73;2.20;;;;;;;21.17;29.52;99965.88;5117487;27;43180;-89
2021/10/09 15:24:06;;;;;;;3.37;2.27;;;;;;;21.01;29.69;99968.25;5142135;27;42504;-88
2021/10/09 15:26:39;;;;;;;2.77;2.30;;;;;;;20.65;30.68;99947.19;5118320;27;38771;-91
2021/10/09 15:29:09;;;;;;;3.13;1.90;;;;;;;20.57;30.62;99982.84;5127793;27;41122;-90
2021/10/09 15:31:37;;;;;;;2.77;1.50;;;;;;;20.20;31.09;99960.91;5120772;27;42613;-90
2021/10/09 15:34:05;;;;;;;3.00;2.00;;;;;;;20.15;31.30;99960.44;5144011;27;42086;-90
2021/10/09 15:36:37;;;;;;;1.97;1.83;;;;;;;20.09;31.24;99985.16;5136036;27;39050;-91
2021/10/09 15:39:05;;;;;;;2.40;2.00;;;;;;;19.86;32.01;99959.34;5123337;27;40497;-89
2021/10/09 15:41:33;;;;;;;3.40;2.30;;;;;;;19.67;32.42;99954.63;5124810;27;42876;-89
2021/10/09 15:44:00;;;;;;;2.67;1.97;;;;;;;19.47;32.87;99956.25;5124486;27;40752;-90
2021/10/09 15:46:28;;;;;;;1.87;1.77;;;;;;;19.44;33.08;99969.91;5129731;27;39259;-90
2021/10/09 15:48:56;;;;;;;4.47;2.50;;;;;;;19.20;32.81;99962.00;5129727;27;40848;-90
2021/10/09 15:51:23;;;;;;;2.90;2.20;;;;;;;19.11;32.87;99964.59;5128998;27;43146;-89
2021/10/09 15:53:52;;;;;;;3.30;2.60;;;;;;;19.00;33.29;99977.06;5129196;27;41100;-86
2021/10/09 15:56:20;;;;;;;3.93;2.50;;;;;;;18.65;33.83;99938.72;5127889;27;38837;-90
2021/10/09 15:58:48;;;;;;;3.03;1.90;;;;;;;18.71;33.45;99969.56;5126267;27;41113;-90
2021/10/09 16:01:16;;;;;;;2.20;1.60;;;;;;;18.44;34.23;99945.72;5116258;27;41596;-88
2021/10/09 16:03:43;;;;;;;2.73;2.00;;;;;;;18.39;34.23;99961.31;5116906;27;41287;-90
2021/10/09 16:06:11;;;;;;;2.07;1.87;;;;;;;18.21;34.91;99963.59;5116635;27;38596;-90
2021/10/09 16:08:38;;;;;;;3.30;2.07;;;;;;;17.92;34.88;99928.28;5116724;27;40574;-92
2021/10/09 16:11:08;;;;;;;2.40;2.00;;;;;;;17.79;34.98;99927.50;5116536;27;43275;-87